sensor_id;sensor_type;location;lat;lon;timestamp;P1;durP1;ratioP1;P2;durP2;ratioP2
10489;SDS011;35569;48.402;10.670;2022-11-02T00:00:13;13.90;;;12.40;;
10489;SDS011;35569;48.402;10.670;2022-11-02T00:00:48;11.93;;;10.93;;
10489;SDS011;35569;48.402;10.670;2022-11-02T00:01:23;13.00;;;11.63;;
10489;SDS011;35569;48.402;10.670;2022-11-02T00:01:56;15.83;;;13.13;;
10489;SDS011;35569;48.402;10.670;2022-11-02T00:02:32;13.63;;;12.23;;
10489;SDS011;35569;48.402;10.670;2022-11-02T00:03:04;13.90;;;12.50;;
10489;SDS011;35569;48.402;10.670;2022-11-02T00:03:37;14.10;;;12.57;;
10489;SDS011;35569;48.402;10.670;2022-11-02T00:04:11;13.83;;;12.53;;
10489;SDS011;35569;48.402;10.670;2022-11-02T00:04:44;14.40;;;12.87;;
10489;SDS011;35569;48.402;10.670;2022-11-02T00:05:16;13.87;;;12.47;;
10489;SDS011;35569;48.402;10.670;2022-11-02T00:05:55;14.73;;;13.23;;
10489;SDS011;35569;48.402;10.670;2022-11-02T00:06:27;14.53;;;12.83;;
10489;SDS011;35569;48.402;10.670;2022-11-02T00:06:59;12.27;;;11.07;;
10489;SDS011;35569;48.402;10.670;2022-11-02T00:07:31;13.60;;;12.20;;
10489;SDS011;35569;48.402;10.670;2022-11-02T00:08:06;12.87;;;11.70;;
10489;SDS011;35569;48.402;10.670;2022-11-02T00:08:38;14.70;;;13.03;;
10489;SDS011;35569;48.402;10.670;2022-11-02T00:09:11;14.63;;;12.87;;
10489;SDS011;35569;48.402;10.670;2022-11-02T00:09:46;12.87;;;11.57;;
10489;SDS011;35569;48.402;10.670;2022-11-02T00:10:18;14.05;;;12.02;;
10489;SDS011;35569;48.402;10.670;2022-11-02T00:10:51;12.83;;;11.60;;
10489;SDS011;35569;48.402;10.670;2022-11-02T00:11:25;12.00;;;9.57;;
10489;SDS011;35569;48.402;10.670;2022-11-02T00:11:58;11.77;;;10.57;;
10489;SDS011;35569;48.402;10.670;2022-11-02T00:12:30;12.13;;;10.93;;
10489;SDS011;35569;48.402;10.670;2022-11-02T00:13:02;11.07;;;10.07;;
10489;SDS011;35569;48.402;10.670;2022-11-02T00:13:37;10.03;;;9.10;;
10489;SDS011;35569;48.402;10.670;2022-11-02T00:14:10;9.37;;;8.57;;
10489;SDS011;35569;48.402;10.670;2022-11-02T00:14:42;9.13;;;8.20;;
10489;SDS011;35569;48.402;10.670;2022-11-02T00:15:19;9.10;;;8.20;;
10489;SDS011;35569;48.402;10.670;2022-11-02T00:15:52;8.87;;;8.17;;
10489;SDS011;35569;48.402;10.670;2022-11-02T00:16:24;9.77;;;8.70;;
10489;SDS011;35569;48.402;10.670;2022-11-02T00:16:59;9.30;;;8.50;;
10489;SDS011;35569;48.402;10.670;2022-11-02T00:17:31;16.50;;;14.17;;
10489;SDS011;35569;48.402;10.670;2022-11-02T00:18:04;16.50;;;12.87;;
10489;SDS011;35569;48.402;10.670;2022-11-02T00:18:42;12.97;;;11.53;;
10489;SDS011;35569;48.402;10.670;2022-11-02T00:19:16;16.63;;;13.77;;
10489;SDS011;35569;48.402;10.670;2022-11-02T00:19:48;21.73;;;19.00;;
10489;SDS011;35569;48.402;10.670;2022-11-02T00:20:23;19.52;;;16.95;;
10489;SDS011;35569;48.402;10.670;2022-11-02T00:20:56;21.33;;;18.70;;
10489;SDS011;35569;48.402;10.670;2022-11-02T00:21:32;37.00;;;27.80;;
10489;SDS011;35569;48.402;10.670;2022-11-02T00:22:04;35.97;;;28.10;;
10489;SDS011;35569;48.402;10.670;2022-11-02T00:22:36;32.63;;;26.87;;
10489;SDS011;35569;48.402;10.670;2022-11-02T00:23:12;34.33;;;28.20;;
10489;SDS011;35569;48.402;10.670;2022-11-02T00:23:45;34.23;;;28.30;;
10489;SDS011;35569;48.402;10.670;2022-11-02T00:24:18;31.03;;;26.97;;
10489;SDS011;35569;48.402;10.670;2022-11-02T00:24:53;34.43;;;27.87;;
10489;SDS011;35569;48.402;10.670;2022-11-02T00:25:26;31.07;;;24.93;;
10489;SDS011;35569;48.402;10.670;2022-11-02T00:25:59;27.17;;;23.50;;
10489;SDS011;35569;48.402;10.670;2022-11-02T00:26:34;31.00;;;23.40;;
10489;SDS011;35569;48.402;10.670;2022-11-02T00:27:09;24.35;;;20.75;;
10489;SDS011;35569;48.402;10.670;2022-11-02T00:27:42;21.10;;;18.43;;
10489;SDS011;35569;48.402;10.670;2022-11-02T00:28:14;20.37;;;15.70;;
10489;SDS011;35569;48.402;10.670;2022-11-02T00:28:49;21.67;;;16.83;;
10489;SDS011;35569;48.402;10.670;2022-11-02T00:29:21;14.90;;;13.40;;
10489;SDS011;35569;48.402;10.670;2022-11-02T00:29:54;11.88;;;10.65;;
10489;SDS011;35569;48.402;10.670;2022-11-02T00:30:32;11.30;;;9.90;;
10489;SDS011;35569;48.402;10.670;2022-11-02T00:31:04;10.80;;;9.10;;
10489;SDS011;35569;48.402;10.670;2022-11-02T00:31:36;9.40;;;8.50;;
10489;SDS011;35569;48.402;10.670;2022-11-02T00:32:11;12.57;;;11.30;;
10489;SDS011;35569;48.402;10.670;2022-11-02T00:32:44;13.70;;;12.20;;
10489;SDS011;35569;48.402;10.670;2022-11-02T00:33:16;13.20;;;11.07;;
10489;SDS011;35569;48.402;10.670;2022-11-02T00:33:51;10.57;;;9.50;;
10489;SDS011;35569;48.402;10.670;2022-11-02T00:34:23;10.03;;;9.13;;
10489;SDS011;35569;48.402;10.670;2022-11-02T00:34:55;12.40;;;10.83;;
10489;SDS011;35569;48.402;10.670;2022-11-02T00:35:27;10.97;;;9.87;;
10489;SDS011;35569;48.402;10.670;2022-11-02T00:36:02;10.90;;;9.90;;
10489;SDS011;35569;48.402;10.670;2022-11-02T00:36:35;11.33;;;10.10;;
10489;SDS011;35569;48.402;10.670;2022-11-02T00:37:07;11.37;;;10.20;;
10489;SDS011;35569;48.402;10.670;2022-11-02T00:37:43;11.13;;;10.23;;
10489;SDS011;35569;48.402;10.670;2022-11-02T00:38:15;11.27;;;10.00;;
10489;SDS011;35569;48.402;10.670;2022-11-02T00:38:47;10.70;;;9.60;;
10489;SDS011;35569;48.402;10.670;2022-11-02T00:39:20;9.73;;;8.87;;
10489;SDS011;35569;48.402;10.670;2022-11-02T00:39:54;10.30;;;9.20;;
10489;SDS011;35569;48.402;10.670;2022-11-02T00:40:27;11.53;;;9.13;;
10489;SDS011;35569;48.402;10.670;2022-11-02T00:40:59;10.27;;;9.37;;
10489;SDS011;35569;48.402;10.670;2022-11-02T00:41:31;13.47;;;10.30;;
10489;SDS011;35569;48.402;10.670;2022-11-02T00:42:07;10.40;;;9.40;;
10489;SDS011;35569;48.402;10.670;2022-11-02T00:42:40;10.53;;;9.53;;
10489;SDS011;35569;48.402;10.670;2022-11-02T00:43:12;8.80;;;8.07;;
10489;SDS011;35569;48.402;10.670;2022-11-02T00:43:47;10.97;;;8.67;;
10489;SDS011;35569;48.402;10.670;2022-11-02T00:44:19;12.40;;;9.50;;
10489;SDS011;35569;48.402;10.670;2022-11-02T00:44:52;12.00;;;10.90;;
10489;SDS011;35569;48.402;10.670;2022-11-02T00:45:27;18.80;;;16.90;;
10489;SDS011;35569;48.402;10.670;2022-11-02T00:46:01;21.00;;;17.40;;
10489;SDS011;35569;48.402;10.670;2022-11-02T00:46:34;20.40;;;18.23;;
10489;SDS011;35569;48.402;10.670;2022-11-02T00:47:10;17.43;;;15.80;;
10489;SDS011;35569;48.402;10.670;2022-11-02T00:47:42;15.98;;;14.52;;
10489;SDS011;35569;48.402;10.670;2022-11-02T00:48:14;15.18;;;13.68;;
10489;SDS011;35569;48.402;10.670;2022-11-02T00:48:50;14.20;;;12.57;;
10489;SDS011;35569;48.402;10.670;2022-11-02T00:49:22;14.63;;;13.13;;
10489;SDS011;35569;48.402;10.670;2022-11-02T00:49:55;13.68;;;12.43;;
10489;SDS011;35569;48.402;10.670;2022-11-02T00:50:30;11.00;;;9.80;;
10489;SDS011;35569;48.402;10.670;2022-11-02T00:51:03;9.93;;;9.03;;
10489;SDS011;35569;48.402;10.670;2022-11-02T00:51:35;10.23;;;9.40;;
10489;SDS011;35569;48.402;10.670;2022-11-02T00:52:11;9.60;;;8.70;;
10489;SDS011;35569;48.402;10.670;2022-11-02T00:52:43;10.93;;;9.25;;
10489;SDS011;35569;48.402;10.670;2022-11-02T00:53:16;11.63;;;8.63;;
10489;SDS011;35569;48.402;10.670;2022-11-02T00:53:55;15.05;;;9.35;;
10489;SDS011;35569;48.402;10.670;2022-11-02T00:54:28;9.47;;;8.63;;
10489;SDS011;35569;48.402;10.670;2022-11-02T00:55:01;8.98;;;8.20;;
10489;SDS011;35569;48.402;10.670;2022-11-02T00:55:36;9.10;;;8.23;;
10489;SDS011;35569;48.402;10.670;2022-11-02T00:56:08;9.53;;;8.63;;
10489;SDS011;35569;48.402;10.670;2022-11-02T00:56:41;9.47;;;8.53;;
10489;SDS011;35569;48.402;10.670;2022-11-02T00:57:16;10.27;;;8.80;;
10489;SDS011;35569;48.402;10.670;2022-11-02T00:57:48;10.33;;;9.33;;
10489;SDS011;35569;48.402;10.670;2022-11-02T00:58:21;9.40;;;8.47;;
10489;SDS011;35569;48.402;10.670;2022-11-02T00:58:56;9.65;;;8.70;;
10489;SDS011;35569;48.402;10.670;2022-11-02T00:59:29;9.20;;;8.33;;
10489;SDS011;35569;48.402;10.670;2022-11-02T01:00:01;9.07;;;8.27;;
10489;SDS011;35569;48.402;10.670;2022-11-02T01:00:36;8.80;;;7.90;;
10489;SDS011;35569;48.402;10.670;2022-11-02T01:01:11;9.97;;;9.10;;
10489;SDS011;35569;48.402;10.670;2022-11-02T01:01:43;7.90;;;7.30;;
10489;SDS011;35569;48.402;10.670;2022-11-02T01:02:20;8.15;;;7.53;;
10489;SDS011;35569;48.402;10.670;2022-11-02T01:02:52;8.53;;;7.93;;
10489;SDS011;35569;48.402;10.670;2022-11-02T01:03:25;9.60;;;8.70;;
10489;SDS011;35569;48.402;10.670;2022-11-02T01:03:59;7.97;;;7.20;;
10489;SDS011;35569;48.402;10.670;2022-11-02T01:04:32;9.20;;;7.67;;
10489;SDS011;35569;48.402;10.670;2022-11-02T01:05:05;8.45;;;7.65;;
10489;SDS011;35569;48.402;10.670;2022-11-02T01:05:41;8.40;;;7.57;;
10489;SDS011;35569;48.402;10.670;2022-11-02T01:06:14;9.33;;;8.30;;
10489;SDS011;35569;48.402;10.670;2022-11-02T01:06:46;7.77;;;7.10;;
10489;SDS011;35569;48.402;10.670;2022-11-02T01:07:21;9.00;;;8.03;;
10489;SDS011;35569;48.402;10.670;2022-11-02T01:07:53;11.87;;;8.17;;
10489;SDS011;35569;48.402;10.670;2022-11-02T01:08:25;9.00;;;8.20;;
10489;SDS011;35569;48.402;10.670;2022-11-02T01:08:58;9.60;;;8.60;;
10489;SDS011;35569;48.402;10.670;2022-11-02T01:09:33;8.38;;;7.72;;
10489;SDS011;35569;48.402;10.670;2022-11-02T01:10:06;8.37;;;7.63;;
10489;SDS011;35569;48.402;10.670;2022-11-02T01:10:39;9.20;;;8.33;;
10489;SDS011;35569;48.402;10.670;2022-11-02T01:11:20;10.47;;;7.83;;
10489;SDS011;35569;48.402;10.670;2022-11-02T01:11:54;9.43;;;8.57;;
10489;SDS011;35569;48.402;10.670;2022-11-02T01:12:27;7.40;;;6.90;;
10489;SDS011;35569;48.402;10.670;2022-11-02T01:13:01;8.53;;;7.80;;
10489;SDS011;35569;48.402;10.670;2022-11-02T01:13:35;9.60;;;8.70;;
10489;SDS011;35569;48.402;10.670;2022-11-02T01:14:07;8.23;;;7.53;;
10489;SDS011;35569;48.402;10.670;2022-11-02T01:14:45;8.53;;;7.73;;
10489;SDS011;35569;48.402;10.670;2022-11-02T01:15:18;8.50;;;7.70;;
10489;SDS011;35569;48.402;10.670;2022-11-02T01:15:53;9.43;;;8.47;;
10489;SDS011;35569;48.402;10.670;2022-11-02T01:16:28;8.10;;;7.40;;
10489;SDS011;35569;48.402;10.670;2022-11-02T01:17:00;8.23;;;7.53;;
10489;SDS011;35569;48.402;10.670;2022-11-02T01:17:35;8.90;;;8.00;;
10489;SDS011;35569;48.402;10.670;2022-11-02T01:18:08;8.10;;;7.50;;
10489;SDS011;35569;48.402;10.670;2022-11-02T01:18:40;8.18;;;7.50;;
10489;SDS011;35569;48.402;10.670;2022-11-02T01:19:16;7.97;;;7.27;;
10489;SDS011;35569;48.402;10.670;2022-11-02T01:19:48;7.70;;;6.97;;
10489;SDS011;35569;48.402;10.670;2022-11-02T01:20:21;8.15;;;7.47;;
10489;SDS011;35569;48.402;10.670;2022-11-02T01:20:56;8.47;;;7.70;;
10489;SDS011;35569;48.402;10.670;2022-11-02T01:21:28;7.90;;;7.30;;
10489;SDS011;35569;48.402;10.670;2022-11-02T01:22:00;7.83;;;7.23;;
10489;SDS011;35569;48.402;10.670;2022-11-02T01:22:37;7.47;;;6.80;;
10489;SDS011;35569;48.402;10.670;2022-11-02T01:23:09;7.53;;;6.80;;
10489;SDS011;35569;48.402;10.670;2022-11-02T01:23:41;8.47;;;7.57;;
10489;SDS011;35569;48.402;10.670;2022-11-02T01:24:16;7.13;;;6.50;;
10489;SDS011;35569;48.402;10.670;2022-11-02T01:24:48;9.97;;;7.20;;
10489;SDS011;35569;48.402;10.670;2022-11-02T01:25:20;7.13;;;6.63;;
10489;SDS011;35569;48.402;10.670;2022-11-02T01:25:55;7.70;;;7.00;;
10489;SDS011;35569;48.402;10.670;2022-11-02T01:26:27;7.30;;;6.80;;
10489;SDS011;35569;48.402;10.670;2022-11-02T01:27:00;6.77;;;6.27;;
10489;SDS011;35569;48.402;10.670;2022-11-02T01:27:35;7.27;;;6.40;;
10489;SDS011;35569;48.402;10.670;2022-11-02T01:28:07;6.60;;;6.10;;
10489;SDS011;35569;48.402;10.670;2022-11-02T01:28:39;6.93;;;6.33;;
10489;SDS011;35569;48.402;10.670;2022-11-02T01:29:16;5.97;;;5.63;;
10489;SDS011;35569;48.402;10.670;2022-11-02T01:29:49;6.37;;;5.97;;
10489;SDS011;35569;48.402;10.670;2022-11-02T01:30:22;6.50;;;5.90;;
10489;SDS011;35569;48.402;10.670;2022-11-02T01:30:57;6.40;;;5.90;;
10489;SDS011;35569;48.402;10.670;2022-11-02T01:31:32;6.10;;;5.63;;
10489;SDS011;35569;48.402;10.670;2022-11-02T01:32:07;5.50;;;5.20;;
10489;SDS011;35569;48.402;10.670;2022-11-02T01:32:42;6.50;;;6.00;;
10489;SDS011;35569;48.402;10.670;2022-11-02T01:33:14;6.70;;;6.20;;
10489;SDS011;35569;48.402;10.670;2022-11-02T01:33:46;6.90;;;6.30;;
10489;SDS011;35569;48.402;10.670;2022-11-02T01:34:21;7.33;;;5.87;;
10489;SDS011;35569;48.402;10.670;2022-11-02T01:34:53;6.60;;;6.20;;
10489;SDS011;35569;48.402;10.670;2022-11-02T01:35:25;7.47;;;6.80;;
10489;SDS011;35569;48.402;10.670;2022-11-02T01:36:01;6.63;;;6.07;;
10489;SDS011;35569;48.402;10.670;2022-11-02T01:36:34;8.73;;;6.07;;
10489;SDS011;35569;48.402;10.670;2022-11-02T01:37:06;6.47;;;5.97;;
10489;SDS011;35569;48.402;10.670;2022-11-02T01:37:42;6.30;;;5.87;;
10489;SDS011;35569;48.402;10.670;2022-11-02T01:38:14;6.70;;;6.10;;
10489;SDS011;35569;48.402;10.670;2022-11-02T01:38:46;5.60;;;5.30;;
10489;SDS011;35569;48.402;10.670;2022-11-02T01:39:21;6.40;;;6.00;;
10489;SDS011;35569;48.402;10.670;2022-11-02T01:39:54;6.07;;;5.67;;
10489;SDS011;35569;48.402;10.670;2022-11-02T01:40:26;5.80;;;5.40;;
10489;SDS011;35569;48.402;10.670;2022-11-02T01:41:01;8.93;;;5.40;;
10489;SDS011;35569;48.402;10.670;2022-11-02T01:41:35;6.75;;;6.25;;
10489;SDS011;35569;48.402;10.670;2022-11-02T01:42:15;6.70;;;6.30;;
10489;SDS011;35569;48.402;10.670;2022-11-02T01:42:50;6.50;;;5.63;;
10489;SDS011;35569;48.402;10.670;2022-11-02T01:43:23;7.57;;;6.83;;
10489;SDS011;35569;48.402;10.670;2022-11-02T01:43:57;5.60;;;5.30;;
10489;SDS011;35569;48.402;10.670;2022-11-02T01:44:35;6.63;;;6.13;;
10489;SDS011;35569;48.402;10.670;2022-11-02T01:45:08;6.07;;;5.63;;
10489;SDS011;35569;48.402;10.670;2022-11-02T01:45:42;5.97;;;5.57;;
10489;SDS011;35569;48.402;10.670;2022-11-02T01:46:15;6.13;;;5.63;;
10489;SDS011;35569;48.402;10.670;2022-11-02T01:46:56;6.03;;;5.63;;
10489;SDS011;35569;48.402;10.670;2022-11-02T01:47:31;5.70;;;5.40;;
10489;SDS011;35569;48.402;10.670;2022-11-02T01:48:06;5.60;;;5.30;;
10489;SDS011;35569;48.402;10.670;2022-11-02T01:48:42;6.20;;;5.60;;
10489;SDS011;35569;48.402;10.670;2022-11-02T01:49:17;6.50;;;6.00;;
10489;SDS011;35569;48.402;10.670;2022-11-02T01:49:51;6.03;;;5.63;;
10489;SDS011;35569;48.402;10.670;2022-11-02T01:50:35;6.90;;;6.47;;
10489;SDS011;35569;48.402;10.670;2022-11-02T01:51:08;6.63;;;6.03;;
10489;SDS011;35569;48.402;10.670;2022-11-02T01:51:42;6.90;;;6.40;;
10489;SDS011;35569;48.402;10.670;2022-11-02T01:52:20;6.73;;;6.13;;
10489;SDS011;35569;48.402;10.670;2022-11-02T01:52:54;6.20;;;5.70;;
10489;SDS011;35569;48.402;10.670;2022-11-02T01:53:26;5.80;;;5.40;;
10489;SDS011;35569;48.402;10.670;2022-11-02T01:54:04;6.80;;;6.30;;
10489;SDS011;35569;48.402;10.670;2022-11-02T01:54:40;5.77;;;5.37;;
10489;SDS011;35569;48.402;10.670;2022-11-02T01:55:15;6.67;;;6.20;;
10489;SDS011;35569;48.402;10.670;2022-11-02T01:55:52;5.60;;;5.20;;
10489;SDS011;35569;48.402;10.670;2022-11-02T01:56:26;6.17;;;5.57;;
10489;SDS011;35569;48.402;10.670;2022-11-02T01:57:02;6.60;;;6.10;;
10489;SDS011;35569;48.402;10.670;2022-11-02T01:57:40;5.73;;;5.43;;
10489;SDS011;35569;48.402;10.670;2022-11-02T01:58:13;5.77;;;5.30;;
10489;SDS011;35569;48.402;10.670;2022-11-02T01:58:50;6.83;;;6.10;;
10489;SDS011;35569;48.402;10.670;2022-11-02T01:59:27;5.57;;;5.17;;
10489;SDS011;35569;48.402;10.670;2022-11-02T02:00:03;5.77;;;5.43;;
10489;SDS011;35569;48.402;10.670;2022-11-02T02:00:45;5.60;;;5.30;;
10489;SDS011;35569;48.402;10.670;2022-11-02T02:01:18;5.30;;;5.00;;
10489;SDS011;35569;48.402;10.670;2022-11-02T02:01:51;5.83;;;5.40;;
10489;SDS011;35569;48.402;10.670;2022-11-02T02:02:28;6.13;;;5.70;;
10489;SDS011;35569;48.402;10.670;2022-11-02T02:03:03;5.80;;;5.07;;
10489;SDS011;35569;48.402;10.670;2022-11-02T02:03:37;7.53;;;6.00;;
10489;SDS011;35569;48.402;10.670;2022-11-02T02:04:13;6.03;;;5.63;;
10489;SDS011;35569;48.402;10.670;2022-11-02T02:04:48;6.07;;;5.57;;
10489;SDS011;35569;48.402;10.670;2022-11-02T02:05:22;6.63;;;5.93;;
10489;SDS011;35569;48.402;10.670;2022-11-02T02:05:59;5.43;;;5.13;;
10489;SDS011;35569;48.402;10.670;2022-11-02T02:06:35;5.37;;;5.07;;
10489;SDS011;35569;48.402;10.670;2022-11-02T02:07:09;5.73;;;5.33;;
10489;SDS011;35569;48.402;10.670;2022-11-02T02:07:44;4.87;;;4.60;;
10489;SDS011;35569;48.402;10.670;2022-11-02T02:08:17;5.90;;;5.50;;
10489;SDS011;35569;48.402;10.670;2022-11-02T02:08:50;5.50;;;5.20;;
10489;SDS011;35569;48.402;10.670;2022-11-02T02:09:26;5.97;;;5.47;;
10489;SDS011;35569;48.402;10.670;2022-11-02T02:09:59;4.77;;;4.37;;
10489;SDS011;35569;48.402;10.670;2022-11-02T02:10:32;4.93;;;4.67;;
10489;SDS011;35569;48.402;10.670;2022-11-02T02:11:23;6.17;;;5.70;;
10489;SDS011;35569;48.402;10.670;2022-11-02T02:11:57;5.57;;;5.23;;
10489;SDS011;35569;48.402;10.670;2022-11-02T02:12:29;5.50;;;5.20;;
10489;SDS011;35569;48.402;10.670;2022-11-02T02:13:05;4.67;;;4.47;;
10489;SDS011;35569;48.402;10.670;2022-11-02T02:13:38;5.53;;;5.00;;
10489;SDS011;35569;48.402;10.670;2022-11-02T02:14:11;5.70;;;5.40;;
10489;SDS011;35569;48.402;10.670;2022-11-02T02:14:51;4.97;;;4.67;;
10489;SDS011;35569;48.402;10.670;2022-11-02T02:15:26;5.27;;;4.90;;
10489;SDS011;35569;48.402;10.670;2022-11-02T02:16:01;4.57;;;4.38;;
10489;SDS011;35569;48.402;10.670;2022-11-02T02:16:51;5.00;;;4.60;;
10489;SDS011;35569;48.402;10.670;2022-11-02T02:17:48;5.10;;;4.70;;
10489;SDS011;35569;48.402;10.670;2022-11-02T02:18:27;4.30;;;4.10;;
10489;SDS011;35569;48.402;10.670;2022-11-02T02:19:16;5.20;;;4.87;;
10489;SDS011;35569;48.402;10.670;2022-11-02T02:19:55;4.47;;;4.28;;
10489;SDS011;35569;48.402;10.670;2022-11-02T02:20:38;5.60;;;5.30;;
10489;SDS011;35569;48.402;10.670;2022-11-02T02:21:20;4.60;;;4.40;;
10489;SDS011;35569;48.402;10.670;2022-11-02T02:24:02;5.50;;;5.10;;
10489;SDS011;35569;48.402;10.670;2022-11-02T02:24:47;5.90;;;5.30;;
10489;SDS011;35569;48.402;10.670;2022-11-02T02:25:27;6.90;;;6.35;;
10489;SDS011;35569;48.402;10.670;2022-11-02T02:27:22;8.10;;;7.33;;
10489;SDS011;35569;48.402;10.670;2022-11-02T02:28:05;5.55;;;5.25;;
10489;SDS011;35569;48.402;10.670;2022-11-02T02:28:44;6.82;;;6.00;;
10489;SDS011;35569;48.402;10.670;2022-11-02T02:29:22;6.83;;;6.27;;
10489;SDS011;35569;48.402;10.670;2022-11-02T02:30:04;6.47;;;5.97;;
10489;SDS011;35569;48.402;10.670;2022-11-02T02:30:39;7.05;;;6.45;;
10489;SDS011;35569;48.402;10.670;2022-11-02T02:31:18;5.87;;;5.47;;
10489;SDS011;35569;48.402;10.670;2022-11-02T02:31:56;6.03;;;5.53;;
10489;SDS011;35569;48.402;10.670;2022-11-02T02:32:37;6.07;;;5.57;;
10489;SDS011;35569;48.402;10.670;2022-11-02T02:33:16;6.10;;;5.70;;
10489;SDS011;35569;48.402;10.670;2022-11-02T02:33:52;5.73;;;5.40;;
10489;SDS011;35569;48.402;10.670;2022-11-02T02:34:29;7.90;;;6.07;;
10489;SDS011;35569;48.402;10.670;2022-11-02T02:35:10;5.97;;;5.47;;
10489;SDS011;35569;48.402;10.670;2022-11-02T02:35:47;7.50;;;5.83;;
10489;SDS011;35569;48.402;10.670;2022-11-02T02:36:23;5.80;;;5.40;;
10489;SDS011;35569;48.402;10.670;2022-11-02T02:37:04;6.70;;;5.20;;
10489;SDS011;35569;48.402;10.670;2022-11-02T02:37:39;5.10;;;4.73;;
10489;SDS011;35569;48.402;10.670;2022-11-02T02:38:13;5.57;;;5.13;;
10489;SDS011;35569;48.402;10.670;2022-11-02T02:38:56;5.70;;;5.20;;
10489;SDS011;35569;48.402;10.670;2022-11-02T02:39:37;5.90;;;5.33;;
10489;SDS011;35569;48.402;10.670;2022-11-02T02:40:13;6.33;;;5.80;;
10489;SDS011;35569;48.402;10.670;2022-11-02T02:40:52;6.13;;;5.70;;
10489;SDS011;35569;48.402;10.670;2022-11-02T02:41:29;6.17;;;5.67;;
10489;SDS011;35569;48.402;10.670;2022-11-02T02:42:10;7.00;;;6.30;;
10489;SDS011;35569;48.402;10.670;2022-11-02T02:42:47;6.10;;;5.70;;
10489;SDS011;35569;48.402;10.670;2022-11-02T02:43:28;6.07;;;5.50;;
10489;SDS011;35569;48.402;10.670;2022-11-02T02:44:03;6.87;;;6.17;;
10489;SDS011;35569;48.402;10.670;2022-11-02T02:44:41;5.63;;;5.20;;
10489;SDS011;35569;48.402;10.670;2022-11-02T02:45:17;5.70;;;5.33;;
10489;SDS011;35569;48.402;10.670;2022-11-02T02:45:53;6.10;;;5.70;;
10489;SDS011;35569;48.402;10.670;2022-11-02T02:46:32;5.43;;;5.10;;
10489;SDS011;35569;48.402;10.670;2022-11-02T02:47:13;5.17;;;4.77;;
10489;SDS011;35569;48.402;10.670;2022-11-02T02:47:48;5.87;;;5.40;;
10489;SDS011;35569;48.402;10.670;2022-11-02T02:48:26;5.77;;;5.27;;
10489;SDS011;35569;48.402;10.670;2022-11-02T02:48:59;5.33;;;4.93;;
10489;SDS011;35569;48.402;10.670;2022-11-02T02:49:34;5.23;;;4.97;;
10489;SDS011;35569;48.402;10.670;2022-11-02T02:50:12;5.27;;;4.97;;
10489;SDS011;35569;48.402;10.670;2022-11-02T02:50:47;5.43;;;5.13;;
10489;SDS011;35569;48.402;10.670;2022-11-02T02:51:23;5.37;;;5.00;;
10489;SDS011;35569;48.402;10.670;2022-11-02T02:52:01;4.63;;;4.40;;
10489;SDS011;35569;48.402;10.670;2022-11-02T02:52:34;6.03;;;5.53;;
10489;SDS011;35569;48.402;10.670;2022-11-02T02:53:06;5.50;;;5.20;;
10489;SDS011;35569;48.402;10.670;2022-11-02T02:53:42;4.97;;;4.60;;
10489;SDS011;35569;48.402;10.670;2022-11-02T02:54:20;5.57;;;5.07;;
10489;SDS011;35569;48.402;10.670;2022-11-02T02:54:56;5.03;;;4.73;;
10489;SDS011;35569;48.402;10.670;2022-11-02T02:55:34;5.30;;;5.00;;
10489;SDS011;35569;48.402;10.670;2022-11-02T02:56:08;5.27;;;4.97;;
10489;SDS011;35569;48.402;10.670;2022-11-02T02:56:43;5.80;;;5.30;;
10489;SDS011;35569;48.402;10.670;2022-11-02T02:57:20;4.73;;;4.53;;
10489;SDS011;35569;48.402;10.670;2022-11-02T02:57:53;4.70;;;4.40;;
10489;SDS011;35569;48.402;10.670;2022-11-02T02:58:30;4.70;;;4.50;;
10489;SDS011;35569;48.402;10.670;2022-11-02T02:59:07;5.10;;;4.70;;
10489;SDS011;35569;48.402;10.670;2022-11-02T02:59:46;5.23;;;4.90;;
10489;SDS011;35569;48.402;10.670;2022-11-02T03:00:22;4.97;;;4.67;;
10489;SDS011;35569;48.402;10.670;2022-11-02T03:00:57;5.23;;;4.90;;
10489;SDS011;35569;48.402;10.670;2022-11-02T03:01:32;4.87;;;4.63;;
10489;SDS011;35569;48.402;10.670;2022-11-02T03:02:05;4.63;;;4.27;;
10489;SDS011;35569;48.402;10.670;2022-11-02T03:02:41;4.80;;;4.50;;
10489;SDS011;35569;48.402;10.670;2022-11-02T03:03:14;5.33;;;4.93;;
10489;SDS011;35569;48.402;10.670;2022-11-02T03:03:48;4.77;;;4.47;;
10489;SDS011;35569;48.402;10.670;2022-11-02T03:04:23;4.70;;;4.50;;
10489;SDS011;35569;48.402;10.670;2022-11-02T03:04:56;4.70;;;4.40;;
10489;SDS011;35569;48.402;10.670;2022-11-02T03:05:29;4.50;;;4.17;;
10489;SDS011;35569;48.402;10.670;2022-11-02T03:06:04;4.63;;;4.33;;
10489;SDS011;35569;48.402;10.670;2022-11-02T03:06:54;4.13;;;3.93;;
10489;SDS011;35569;48.402;10.670;2022-11-02T03:07:27;4.80;;;4.50;;
10489;SDS011;35569;48.402;10.670;2022-11-02T03:08:09;4.90;;;4.50;;
10489;SDS011;35569;48.402;10.670;2022-11-02T03:08:46;5.00;;;4.70;;
10489;SDS011;35569;48.402;10.670;2022-11-02T03:09:22;4.40;;;4.20;;
10489;SDS011;35569;48.402;10.670;2022-11-02T03:10:08;4.20;;;3.90;;
10489;SDS011;35569;48.402;10.670;2022-11-02T03:10:46;4.50;;;4.30;;
10489;SDS011;35569;48.402;10.670;2022-11-02T03:11:22;4.40;;;4.20;;
10489;SDS011;35569;48.402;10.670;2022-11-02T03:11:59;4.40;;;4.20;;
10489;SDS011;35569;48.402;10.670;2022-11-02T03:12:44;3.97;;;3.77;;
10489;SDS011;35569;48.402;10.670;2022-11-02T03:13:32;3.80;;;3.60;;
10489;SDS011;35569;48.402;10.670;2022-11-02T03:14:10;3.83;;;3.63;;
10489;SDS011;35569;48.402;10.670;2022-11-02T03:14:54;4.07;;;3.87;;
10489;SDS011;35569;48.402;10.670;2022-11-02T03:15:42;4.07;;;3.80;;
10489;SDS011;35569;48.402;10.670;2022-11-02T03:16:21;4.13;;;3.83;;
10489;SDS011;35569;48.402;10.670;2022-11-02T03:17:11;3.60;;;3.50;;
10489;SDS011;35569;48.402;10.670;2022-11-02T03:17:54;3.70;;;3.53;;
10489;SDS011;35569;48.402;10.670;2022-11-02T03:18:33;3.70;;;3.60;;
10489;SDS011;35569;48.402;10.670;2022-11-02T03:19:11;3.20;;;3.10;;
10489;SDS011;35569;48.402;10.670;2022-11-02T03:19:52;3.80;;;3.60;;
10489;SDS011;35569;48.402;10.670;2022-11-02T03:20:28;4.57;;;3.97;;
10489;SDS011;35569;48.402;10.670;2022-11-02T03:21:05;4.70;;;4.40;;
10489;SDS011;35569;48.402;10.670;2022-11-02T03:21:47;4.00;;;3.80;;
10489;SDS011;35569;48.402;10.670;2022-11-02T03:22:25;3.60;;;3.40;;
10489;SDS011;35569;48.402;10.670;2022-11-02T03:23:07;3.97;;;3.83;;
10489;SDS011;35569;48.402;10.670;2022-11-02T03:23:48;3.50;;;3.40;;
10489;SDS011;35569;48.402;10.670;2022-11-02T03:24:24;4.20;;;3.90;;
10489;SDS011;35569;48.402;10.670;2022-11-02T03:24:59;4.00;;;3.80;;
10489;SDS011;35569;48.402;10.670;2022-11-02T03:25:38;3.90;;;3.70;;
10489;SDS011;35569;48.402;10.670;2022-11-02T03:26:17;3.70;;;3.57;;
10489;SDS011;35569;48.402;10.670;2022-11-02T03:26:56;4.00;;;3.80;;
10489;SDS011;35569;48.402;10.670;2022-11-02T03:27:38;3.73;;;3.53;;
10489;SDS011;35569;48.402;10.670;2022-11-02T03:28:13;4.00;;;3.80;;
10489;SDS011;35569;48.402;10.670;2022-11-02T03:28:54;3.77;;;3.57;;
10489;SDS011;35569;48.402;10.670;2022-11-02T03:29:34;4.00;;;3.90;;
10489;SDS011;35569;48.402;10.670;2022-11-02T03:30:10;3.87;;;3.77;;
10489;SDS011;35569;48.402;10.670;2022-11-02T03:30:45;3.63;;;3.53;;
10489;SDS011;35569;48.402;10.670;2022-11-02T03:31:25;4.00;;;3.90;;
10489;SDS011;35569;48.402;10.670;2022-11-02T03:32:04;3.87;;;3.70;;
10489;SDS011;35569;48.402;10.670;2022-11-02T03:32:40;3.50;;;3.33;;